createdAt,value
2019-05-02T00:01:45.943Z,4.10
2019-05-02T00:04:19.955Z,4.33
2019-05-02T00:07:03.288Z,4.00
2019-05-02T00:09:33.777Z,3.90
2019-05-02T00:12:04.664Z,4.20
2019-05-02T00:14:34.715Z,4.00
2019-05-02T00:17:04.983Z,4.83
2019-05-02T00:19:34.646Z,4.40
2019-05-02T00:22:04.817Z,3.67
2019-05-02T00:24:39.384Z,4.53
2019-05-02T00:27:06.498Z,4.97
2019-05-02T00:29:36.217Z,4.77
2019-05-02T00:32:06.009Z,6.03
2019-05-02T00:34:35.888Z,5.90
2019-05-02T00:37:05.676Z,5.90
2019-05-02T00:39:35.448Z,5.50
2019-05-02T00:42:12.867Z,6.70
2019-05-02T00:44:42.021Z,6.13
2019-05-02T00:47:19.360Z,6.60
2019-05-02T00:49:49.258Z,6.40
2019-05-02T00:52:19.181Z,6.90
2019-05-02T00:54:48.976Z,6.27
2019-05-02T00:57:21.756Z,6.83
2019-05-02T00:59:52.090Z,5.90
2019-05-02T01:02:28.124Z,7.90
2019-05-02T01:04:59.343Z,8.83
2019-05-02T01:07:29.317Z,8.50
2019-05-02T01:09:59.080Z,8.80
2019-05-02T01:12:28.688Z,8.63
2019-05-02T01:15:03.387Z,11.67
2019-05-02T01:17:32.293Z,10.47
2019-05-02T01:20:02.044Z,10.63
2019-05-02T01:22:31.707Z,11.07
2019-05-02T01:25:01.668Z,10.60
2019-05-02T01:27:50.456Z,11.50
2019-05-02T01:30:26.780Z,10.10
2019-05-02T01:33:11.524Z,11.33
2019-05-02T01:36:06.119Z,12.03
2019-05-02T01:38:40.153Z,11.50
2019-05-02T01:41:09.872Z,11.70
2019-05-02T01:43:39.686Z,12.37
2019-05-02T01:46:09.483Z,11.67
2019-05-02T01:48:40.228Z,12.43
2019-05-02T01:51:12.086Z,12.30
2019-05-02T01:53:41.740Z,13.40
2019-05-02T01:56:11.444Z,12.50
2019-05-02T01:58:41.076Z,12.20
2019-05-02T02:01:10.983Z,12.00
2019-05-02T02:03:45.517Z,12.00
2019-05-02T02:06:13.248Z,13.40
2019-05-02T02:08:43.257Z,14.50
2019-05-02T02:11:13.074Z,13.17
2019-05-02T02:13:42.900Z,13.10
2019-05-02T02:16:12.777Z,14.37
2019-05-02T02:18:48.063Z,14.57
2019-05-02T02:21:45.840Z,13.03
2019-05-02T02:24:21.176Z,15.30
2019-05-02T02:26:52.091Z,13.37
2019-05-02T02:29:21.742Z,14.20
2019-05-02T02:31:51.379Z,15.60
2019-05-02T02:34:29.094Z,14.90
2019-05-02T02:36:54.330Z,15.67
2019-05-02T02:39:23.993Z,15.83
2019-05-02T02:41:54.166Z,16.83
2019-05-02T02:44:33.624Z,15.70
2019-05-02T02:47:05.553Z,15.03
2019-05-02T02:49:35.281Z,14.67
2019-05-02T02:52:06.890Z,16.30
2019-05-02T02:54:43.482Z,17.93
2019-05-02T02:57:20.566Z,18.07
2019-05-02T02:59:41.157Z,18.30
2019-05-02T03:02:12.127Z,17.00
2019-05-02T03:04:43.969Z,17.50
2019-05-02T03:07:24.490Z,17.93
2019-05-02T03:09:46.083Z,19.53
2019-05-02T03:12:36.135Z,17.73
2019-05-02T03:15:08.086Z,20.80
2019-05-02T03:17:37.765Z,19.23
2019-05-02T03:20:07.600Z,20.03
2019-05-02T03:22:41.796Z,20.03
2019-05-02T03:25:09.850Z,20.07
2019-05-02T03:27:40.384Z,19.97
2019-05-02T03:30:29.434Z,20.50
2019-05-02T03:33:02.681Z,19.07
2019-05-02T03:35:18.513Z,20.00
2019-05-02T03:37:51.167Z,19.40
2019-05-02T03:40:16.378Z,21.43
2019-05-02T03:42:47.722Z,21.80
2019-05-02T03:45:20.374Z,19.73
2019-05-02T03:47:50.200Z,20.70
2019-05-02T03:50:31.294Z,21.47
2019-05-02T03:52:51.255Z,19.90
2019-05-02T03:55:23.909Z,19.70
2019-05-02T03:57:54.078Z,20.00
2019-05-02T04:00:24.575Z,21.20
2019-05-02T04:03:02.020Z,19.17
2019-05-02T04:05:26.689Z,20.30
2019-05-02T04:07:56.454Z,19.40
2019-05-02T04:10:59.570Z,20.50
2019-05-02T04:13:30.064Z,19.87
2019-05-02T04:15:58.773Z,20.13
2019-05-02T04:18:28.798Z,18.20
2019-05-02T04:21:00.488Z,20.50
2019-05-02T04:23:32.960Z,19.60
2019-05-02T04:26:06.735Z,19.43
2019-05-02T04:28:35.209Z,17.73
2019-05-02T04:31:04.947Z,19.90
2019-05-02T04:33:36.628Z,17.10
2019-05-02T04:36:14.107Z,18.97
2019-05-02T04:38:44.330Z,18.83
2019-05-02T04:41:09.546Z,18.60
2019-05-02T04:43:40.566Z,22.53
2019-05-02T04:46:18.066Z,19.13
2019-05-02T04:48:48.302Z,17.70
2019-05-02T04:51:17.526Z,18.97
2019-05-02T04:53:49.564Z,18.93
2019-05-02T04:56:18.675Z,18.27
2019-05-02T04:58:49.344Z,16.77
2019-05-02T05:01:21.374Z,17.23
2019-05-02T05:03:58.259Z,14.40
2019-05-02T05:06:22.825Z,15.13
2019-05-02T05:08:52.605Z,16.90
2019-05-02T05:11:24.893Z,18.03
2019-05-02T05:13:57.638Z,15.80
2019-05-02T05:16:25.375Z,16.77
2019-05-02T05:18:57.842Z,16.03
2019-05-02T05:21:28.624Z,15.50
2019-05-02T05:24:18.124Z,17.50
2019-05-02T05:26:50.991Z,18.67
2019-05-02T05:29:23.259Z,16.43
2019-05-02T05:31:55.059Z,17.90
2019-05-02T05:34:28.467Z,17.87
2019-05-02T05:36:58.270Z,17.17
2019-05-02T05:39:28.555Z,14.20
2019-05-02T05:41:58.107Z,16.70
2019-05-02T05:44:32.448Z,16.90
2019-05-02T05:46:59.668Z,16.97
2019-05-02T05:49:30.128Z,16.67
2019-05-02T05:52:03.755Z,16.67
2019-05-02T05:54:37.544Z,17.00
2019-05-02T05:57:04.838Z,17.37
2019-05-02T05:59:35.117Z,17.40
2019-05-02T06:02:05.389Z,16.83
2019-05-02T06:04:38.775Z,17.10
2019-05-02T06:07:09.237Z,15.80
2019-05-02T06:09:39.019Z,16.40
2019-05-02T06:12:08.612Z,15.70
2019-05-02T06:14:38.217Z,16.57
2019-05-02T06:17:07.900Z,16.00
2019-05-02T06:19:37.638Z,16.23
2019-05-02T06:22:07.919Z,15.13
2019-05-02T06:24:37.658Z,14.80
2019-05-02T06:27:07.381Z,13.50
2019-05-02T06:29:51.270Z,13.37
2019-05-02T06:32:36.309Z,13.40
2019-05-02T06:35:06.270Z,12.90
2019-05-02T06:37:40.318Z,14.10
2019-05-02T06:40:09.466Z,14.97
2019-05-02T06:42:40.964Z,14.67
2019-05-02T06:45:11.454Z,12.50
2019-05-02T06:47:43.612Z,12.00
2019-05-02T06:50:19.053Z,13.80
2019-05-02T06:52:49.042Z,13.50
2019-05-02T06:55:18.985Z,14.37
2019-05-02T06:57:51.600Z,14.27
2019-05-02T07:00:21.011Z,16.67
2019-05-02T07:02:52.237Z,15.10
2019-05-02T07:05:27.174Z,12.20
2019-05-02T07:07:54.069Z,14.07
2019-05-02T07:10:25.467Z,13.80
2019-05-02T07:13:09.953Z,14.87
2019-05-02T07:15:56.647Z,14.20
2019-05-02T07:18:27.737Z,14.80
2019-05-02T07:20:57.627Z,13.97
2019-05-02T07:23:28.979Z,12.53
2019-05-02T07:26:00.369Z,12.93
2019-05-02T07:28:30.889Z,15.13
2019-05-02T07:31:06.693Z,14.70
2019-05-02T07:33:37.531Z,13.77
2019-05-02T07:36:07.575Z,16.57
2019-05-02T07:38:37.416Z,16.20
2019-05-02T07:41:10.823Z,13.93
2019-05-02T07:43:40.666Z,13.90
2019-05-02T07:46:16.110Z,13.90
2019-05-02T07:48:48.965Z,14.90
2019-05-02T07:51:17.297Z,14.40
2019-05-02T07:53:49.806Z,15.20
2019-05-02T07:56:19.562Z,16.20
2019-05-02T07:58:49.361Z,16.13
2019-05-02T08:01:19.861Z,15.80
2019-05-02T08:03:49.564Z,17.40
2019-05-02T08:06:19.341Z,15.80
2019-05-02T08:08:49.193Z,17.42
2019-05-02T08:11:19.058Z,15.60
2019-05-02T08:13:55.650Z,17.43
2019-05-02T08:16:27.425Z,15.73
2019-05-02T08:19:01.417Z,15.27
2019-05-02T08:21:32.587Z,18.27
2019-05-02T08:24:03.627Z,16.70
2019-05-02T08:26:53.327Z,17.20
2019-05-02T08:29:23.329Z,17.77
2019-05-02T08:31:54.173Z,14.70
2019-05-02T08:34:31.524Z,18.40
2019-05-02T08:37:04.791Z,18.17
2019-05-02T08:39:35.258Z,17.37
2019-05-02T08:42:06.274Z,18.33
2019-05-02T08:44:49.958Z,16.80
2019-05-02T08:47:18.451Z,18.20
2019-05-02T08:49:42.480Z,16.83
2019-05-02T08:52:11.501Z,14.60
2019-05-02T08:54:41.298Z,16.03
2019-05-02T08:57:11.077Z,16.27
2019-05-02T08:59:41.011Z,16.20
2019-05-02T09:02:10.791Z,16.40
2019-05-02T09:04:40.789Z,14.50
2019-05-02T09:07:12.163Z,16.37
2019-05-02T09:09:42.164Z,16.33
2019-05-02T09:12:15.068Z,15.90
2019-05-02T09:14:43.725Z,15.20
2019-05-02T09:17:16.631Z,15.20
2019-05-02T09:19:59.164Z,14.17
2019-05-02T09:22:17.573Z,14.57
2019-05-02T09:24:47.315Z,16.90
2019-05-02T09:27:16.929Z,16.83
2019-05-02T09:29:47.045Z,14.70
2019-05-02T09:32:22.770Z,16.47
2019-05-02T09:34:48.809Z,15.10
2019-05-02T09:37:18.887Z,12.80
2019-05-02T09:39:49.198Z,13.53
2019-05-02T09:42:19.230Z,14.50
2019-05-02T09:44:55.427Z,14.07
2019-05-02T09:47:27.359Z,13.73
2019-05-02T09:50:12.881Z,14.90
2019-05-02T09:52:44.181Z,14.97
2019-05-02T09:55:15.246Z,15.90
2019-05-02T09:57:45.754Z,16.30
2019-05-02T10:00:32.140Z,14.83
2019-05-02T10:03:02.716Z,15.73
2019-05-02T10:05:32.641Z,14.87
2019-05-02T10:08:06.733Z,15.40
2019-05-02T10:10:37.144Z,14.30
2019-05-02T10:13:08.345Z,15.30
2019-05-02T10:15:41.930Z,15.70
2019-05-02T10:18:14.399Z,14.30
2019-05-02T10:20:43.729Z,13.87
2019-05-02T10:23:19.510Z,14.27
2019-05-02T10:25:46.939Z,15.20
2019-05-02T10:28:17.958Z,13.37
2019-05-02T10:30:52.513Z,17.00
2019-05-02T10:33:19.532Z,15.30
2019-05-02T10:35:52.277Z,14.10
2019-05-02T10:38:22.732Z,15.90
2019-05-02T10:40:54.708Z,15.40
2019-05-02T10:43:24.294Z,14.37
2019-05-02T10:45:59.424Z,14.87
2019-05-02T10:48:29.294Z,15.13
2019-05-02T10:51:18.454Z,15.00
2019-05-02T10:53:52.656Z,14.93
2019-05-02T10:56:22.142Z,15.90
2019-05-02T10:58:52.354Z,12.83
2019-05-02T11:01:23.667Z,15.77
2019-05-02T11:03:53.821Z,14.80
2019-05-02T11:06:23.557Z,13.63
2019-05-02T11:08:53.291Z,14.10
2019-05-02T11:11:23.173Z,14.40
2019-05-02T11:14:05.821Z,14.40
2019-05-02T11:16:52.468Z,17.23
2019-05-02T11:19:28.921Z,17.67
2019-05-02T11:21:59.276Z,14.80
2019-05-02T11:24:31.610Z,14.97
2019-05-02T11:27:02.202Z,14.23
2019-05-02T11:29:32.292Z,13.93
2019-05-02T11:32:02.819Z,14.73
2019-05-02T11:34:32.762Z,16.50
2019-05-02T11:37:02.582Z,15.53
2019-05-02T11:39:43.281Z,14.20
2019-05-02T11:42:03.767Z,15.33
2019-05-02T11:44:33.462Z,14.23
2019-05-02T11:47:03.121Z,14.73
2019-05-02T11:49:33.035Z,15.23
2019-05-02T11:52:04.645Z,14.37
2019-05-02T11:54:34.334Z,14.33
2019-05-02T11:57:04.267Z,14.30
2019-05-02T11:59:33.945Z,14.80
2019-05-02T12:02:26.279Z,15.83
2019-05-02T12:04:56.411Z,13.60
2019-05-02T12:07:28.008Z,13.70
2019-05-02T12:10:17.569Z,13.77
2019-05-02T12:12:52.664Z,15.10
2019-05-02T12:15:22.771Z,13.47
2019-05-02T12:17:52.722Z,13.00
2019-05-02T12:20:22.868Z,13.63
2019-05-02T12:22:53.099Z,13.50
2019-05-02T12:25:23.561Z,13.73
2019-05-02T12:27:54.102Z,13.27
2019-05-02T12:30:23.863Z,14.90
2019-05-02T12:32:55.033Z,14.40
2019-05-02T12:35:24.878Z,15.87
2019-05-02T12:37:55.352Z,15.53
2019-05-02T12:40:25.237Z,14.20
2019-05-02T12:42:55.436Z,15.70
2019-05-02T12:45:25.441Z,16.03
2019-05-02T12:47:55.672Z,15.03
2019-05-02T12:50:26.854Z,15.63
2019-05-02T12:52:57.021Z,16.63
2019-05-02T12:55:27.110Z,16.80
2019-05-02T12:57:57.033Z,14.47
2019-05-02T13:00:26.810Z,13.67
2019-05-02T13:03:03.341Z,14.53
2019-05-02T13:05:33.032Z,14.47
2019-05-02T13:08:04.174Z,15.73
2019-05-02T13:10:55.771Z,15.50
2019-05-02T13:13:25.797Z,15.30
2019-05-02T13:15:56.697Z,14.70
2019-05-02T13:18:34.819Z,15.20
2019-05-02T13:21:02.279Z,13.60
2019-05-02T13:23:42.652Z,13.67
2019-05-02T13:26:19.663Z,15.60
2019-05-02T13:28:44.188Z,14.70
2019-05-02T13:31:26.864Z,13.23
2019-05-02T13:34:23.601Z,11.63
2019-05-02T13:36:53.541Z,12.07
2019-05-02T13:39:36.020Z,11.07
2019-05-02T13:42:06.883Z,11.87
2019-05-02T13:44:41.659Z,10.93
2019-05-02T13:47:12.908Z,11.67
2019-05-02T13:49:53.200Z,10.80
2019-05-02T13:52:15.901Z,9.20
2019-05-02T13:54:46.278Z,9.73
2019-05-02T13:57:16.998Z,9.37
2019-05-02T13:59:48.536Z,7.10
2019-05-02T14:02:42.469Z,8.03
2019-05-02T14:05:12.926Z,7.60
2019-05-02T14:07:48.280Z,9.40
2019-05-02T14:10:24.938Z,7.93
2019-05-02T14:12:57.253Z,7.00
2019-05-02T14:15:36.164Z,8.07
2019-05-02T14:18:06.836Z,7.10
2019-05-02T14:20:39.821Z,7.90
2019-05-02T14:23:12.030Z,7.30
2019-05-02T14:25:42.603Z,7.83
2019-05-02T14:28:13.056Z,8.50
2019-05-02T14:30:46.049Z,8.73
2019-05-02T14:33:20.264Z,7.70
2019-05-02T14:35:52.526Z,7.03
2019-05-02T14:38:23.293Z,7.47
2019-05-02T14:41:14.034Z,6.97
2019-05-02T14:44:09.280Z,6.50
2019-05-02T14:46:39.688Z,7.50
2019-05-02T14:49:12.063Z,6.93
2019-05-02T14:51:42.033Z,6.73
2019-05-02T14:54:12.215Z,6.70
2019-05-02T14:56:53.084Z,7.03
2019-05-02T14:59:24.898Z,5.77
2019-05-02T15:02:03.064Z,5.90
2019-05-02T15:04:29.522Z,5.40
2019-05-02T15:07:01.907Z,6.17
2019-05-02T15:09:57.253Z,6.63
2019-05-02T15:12:26.525Z,6.80
2019-05-02T15:14:58.542Z,6.50
2019-05-02T15:17:32.748Z,6.70
2019-05-02T15:20:00.000Z,5.80
2019-05-02T15:22:33.189Z,5.40
2019-05-02T15:25:02.815Z,4.50
2019-05-02T15:27:40.099Z,4.30
2019-05-02T15:30:08.215Z,4.60
2019-05-02T15:32:47.339Z,6.20
2019-05-02T15:35:38.305Z,5.53
2019-05-02T15:38:14.392Z,5.23
2019-05-02T15:40:59.038Z,5.77
2019-05-02T15:43:34.130Z,6.80
2019-05-02T15:46:07.318Z,6.33
2019-05-02T15:48:42.185Z,6.67
2019-05-02T15:51:12.454Z,6.57
2019-05-02T15:54:05.310Z,6.13
2019-05-02T15:56:25.209Z,4.13
2019-05-02T15:59:18.004Z,4.60
2019-05-02T16:01:54.548Z,4.70
2019-05-02T16:04:27.850Z,5.90
2019-05-02T16:07:00.422Z,6.33
2019-05-02T16:09:29.484Z,7.57
2019-05-02T16:12:00.503Z,7.30
2019-05-02T16:14:32.419Z,7.37
2019-05-02T16:17:03.828Z,5.60
2019-05-02T16:19:42.560Z,4.10
2019-05-02T16:22:16.939Z,3.30
2019-05-02T16:24:49.031Z,2.00
2019-05-02T16:27:25.438Z,1.57
2019-05-02T16:29:58.235Z,2.10
2019-05-02T16:32:37.946Z,2.13
2019-05-02T16:35:13.546Z,2.20
2019-05-02T16:37:41.992Z,2.33
2019-05-02T16:40:34.354Z,2.97
2019-05-02T16:43:04.645Z,3.00
2019-05-02T16:45:34.991Z,1.83
2019-05-02T16:48:05.652Z,2.03
2019-05-02T16:50:36.993Z,1.80
2019-05-02T16:53:11.767Z,2.70
2019-05-02T16:55:45.161Z,2.50
2019-05-02T16:58:20.482Z,1.90
2019-05-02T17:00:49.368Z,2.40
2019-05-02T17:03:22.763Z,3.30
2019-05-02T17:06:01.943Z,2.67
2019-05-02T17:08:49.581Z,2.10
2019-05-02T17:11:31.451Z,2.77
2019-05-02T17:14:12.009Z,2.90
2019-05-02T17:16:47.034Z,2.30
2019-05-02T17:19:17.951Z,2.53
2019-05-02T17:21:56.869Z,2.37
2019-05-02T17:24:26.142Z,3.37
2019-05-02T17:26:57.038Z,5.73
2019-05-02T17:29:27.016Z,3.17
2019-05-02T17:31:59.345Z,3.23
2019-05-02T17:34:32.466Z,2.63
2019-05-02T17:37:05.655Z,2.90
2019-05-02T17:39:37.308Z,2.70
2019-05-02T17:42:05.613Z,2.80
2019-05-02T17:44:35.871Z,2.67
2019-05-02T17:47:06.155Z,3.00
2019-05-02T17:49:36.832Z,3.43
2019-05-02T17:52:28.080Z,3.07
2019-05-02T17:55:01.775Z,3.83
2019-05-02T17:57:33.427Z,4.50
2019-05-02T18:00:02.833Z,3.83
2019-05-02T18:02:36.190Z,3.10
2019-05-02T18:05:09.563Z,4.10
2019-05-02T18:07:41.833Z,4.73
2019-05-02T18:10:21.877Z,6.30
2019-05-02T18:12:47.295Z,4.47
2019-05-02T18:15:18.216Z,3.50
2019-05-02T18:17:48.278Z,3.73
2019-05-02T18:20:18.778Z,3.50
2019-05-02T18:22:51.916Z,4.50
2019-05-02T18:25:25.279Z,4.40
2019-05-02T18:27:58.644Z,3.60
2019-05-02T18:30:30.758Z,3.50
2019-05-02T18:33:03.410Z,3.80
2019-05-02T18:35:41.960Z,4.20
2019-05-02T18:38:10.464Z,3.90
2019-05-02T18:40:42.228Z,3.70
2019-05-02T18:43:14.255Z,3.40
2019-05-02T18:45:44.563Z,3.97
2019-05-02T18:48:15.450Z,4.20
2019-05-02T18:50:49.816Z,4.00
2019-05-02T18:53:22.979Z,3.10
2019-05-02T18:55:52.205Z,4.50
2019-05-02T18:58:23.944Z,4.07
2019-05-02T19:00:54.835Z,3.73
2019-05-02T19:03:24.930Z,3.63
2019-05-02T19:05:58.396Z,3.50
2019-05-02T19:08:32.238Z,3.30
2019-05-02T19:11:10.038Z,3.80
2019-05-02T19:13:37.596Z,3.70
2019-05-02T19:16:19.287Z,4.10
2019-05-02T19:18:49.013Z,4.07
2019-05-02T19:21:21.709Z,3.87
2019-05-02T19:23:52.730Z,4.50
2019-05-02T19:26:22.992Z,4.30
2019-05-02T19:29:02.465Z,4.03
2019-05-02T19:31:41.157Z,3.70
2019-05-02T19:34:16.898Z,3.57
2019-05-02T19:36:46.121Z,3.83
2019-05-02T19:39:18.838Z,3.67
2019-05-02T19:41:49.521Z,3.40
2019-05-02T19:44:21.394Z,3.57
2019-05-02T19:46:52.063Z,2.90
2019-05-02T19:49:25.334Z,3.23
2019-05-02T19:51:58.263Z,3.10
2019-05-02T19:54:31.727Z,2.70
2019-05-02T19:57:26.453Z,3.20
2019-05-02T20:00:02.878Z,3.60
2019-05-02T20:02:29.297Z,3.27
2019-05-02T20:04:59.338Z,3.20
2019-05-02T20:07:29.429Z,3.60
2019-05-02T20:10:01.816Z,2.67
2019-05-02T20:12:33.289Z,3.47
2019-05-02T20:15:12.146Z,2.60
2019-05-02T20:17:46.716Z,3.47
2019-05-02T20:20:41.932Z,2.80
2019-05-02T20:23:17.896Z,2.67
2019-05-02T20:25:46.579Z,3.20
2019-05-02T20:28:16.869Z,3.00
2019-05-02T20:30:47.458Z,2.20
2019-05-02T20:33:17.473Z,2.90
2019-05-02T20:35:47.522Z,2.73
2019-05-02T20:38:17.610Z,2.63
2019-05-02T20:40:47.525Z,2.20
2019-05-02T20:43:17.695Z,2.17
2019-05-02T20:45:48.129Z,2.73
2019-05-02T20:48:18.122Z,3.10
2019-05-02T20:50:48.032Z,2.40
2019-05-02T20:53:28.140Z,2.33
2019-05-02T20:55:52.209Z,1.97
2019-05-02T20:58:22.280Z,2.40
2019-05-02T21:01:05.097Z,2.53
2019-05-02T21:03:24.314Z,2.40
2019-05-02T21:06:13.284Z,2.40
2019-05-02T21:08:56.325Z,2.43
2019-05-02T21:11:26.707Z,2.43
2019-05-02T21:13:58.375Z,2.90
2019-05-02T21:16:29.353Z,2.53
2019-05-02T21:18:59.404Z,2.90
2019-05-02T21:21:29.796Z,2.17
2019-05-02T21:24:01.972Z,2.43
2019-05-02T21:26:32.876Z,2.20
2019-05-02T21:29:03.242Z,2.33
2019-05-02T21:31:33.471Z,2.37
2019-05-02T21:34:03.490Z,2.70
2019-05-02T21:36:33.483Z,2.80
2019-05-02T21:39:05.538Z,2.80
2019-05-02T21:41:35.500Z,2.33
2019-05-02T21:44:05.605Z,2.97
2019-05-02T21:46:35.480Z,2.90
2019-05-02T21:49:05.715Z,2.50
2019-05-02T21:51:51.779Z,2.50
2019-05-02T21:54:28.931Z,2.20
2019-05-02T21:57:03.718Z,2.60
2019-05-02T21:59:33.466Z,3.77
2019-05-02T22:02:04.753Z,2.07
2019-05-02T22:04:34.610Z,2.60
2019-05-02T22:07:04.525Z,2.30
2019-05-02T22:09:34.265Z,2.20
2019-05-02T22:12:04.241Z,2.23
2019-05-02T22:14:34.671Z,2.50
2019-05-02T22:17:04.786Z,1.70
2019-05-02T22:19:34.711Z,2.23
2019-05-02T22:22:04.792Z,1.90
2019-05-02T22:24:34.608Z,2.93
2019-05-02T22:27:07.206Z,2.27
2019-05-02T22:29:37.129Z,2.57
2019-05-02T22:32:07.228Z,1.80
2019-05-02T22:34:37.645Z,2.67
2019-05-02T22:37:09.303Z,2.20
2019-05-02T22:39:53.703Z,2.70
2019-05-02T22:42:23.842Z,2.77
2019-05-02T22:44:53.909Z,2.53
2019-05-02T22:47:23.785Z,2.63
2019-05-02T22:49:53.749Z,2.40
2019-05-02T22:52:23.761Z,2.43
2019-05-02T22:54:53.785Z,1.70
2019-05-02T22:57:23.812Z,2.30
2019-05-02T22:59:54.431Z,2.40
2019-05-02T23:02:24.546Z,2.40
2019-05-02T23:04:54.425Z,2.17
2019-05-02T23:07:26.225Z,2.10
2019-05-02T23:09:58.240Z,2.37
2019-05-02T23:12:28.475Z,2.57
2019-05-02T23:14:58.567Z,2.73
2019-05-02T23:17:28.275Z,2.50
2019-05-02T23:19:58.177Z,2.50
2019-05-02T23:22:29.193Z,2.23
2019-05-02T23:25:39.025Z,2.20
2019-05-02T23:28:13.253Z,2.13
2019-05-02T23:30:45.361Z,2.63
2019-05-02T23:33:15.222Z,2.03
2019-05-02T23:35:45.601Z,2.60
2019-05-02T23:38:16.056Z,1.83
2019-05-02T23:40:47.343Z,1.97
2019-05-02T23:43:17.305Z,2.10
2019-05-02T23:45:47.293Z,2.20
2019-05-02T23:48:18.271Z,2.37
2019-05-02T23:50:48.833Z,2.23
2019-05-02T23:53:18.696Z,2.17
2019-05-02T23:55:48.822Z,2.10
2019-05-02T23:58:18.744Z,3.40
